ROYN/OGN METAR and TAF weather

Enter ICAO airport designator
Station Type Date Time Source
ROYN METAR 2021/05/12 01:00 UTC NOAA

ROYN 120100Z AUTO 20016KT 9999 FEW010 29/27 Q1010


Station Type Date Time Source
ROYN Decoded METAR 2021/05/12 01:00 UTC NOAA

Yonaguni Airport, Japan (ROYN) 24-28N 122-59E 19M
May 11, 2021 - 09:00 PM EDT / 2021.05.12 0100 UTC
Wind: from the SSW (200 degrees) at 18 MPH (16 KT):0
Visibility: greater than 7 mile(s):0
Sky conditions: mostly clear
Temperature: 84 F (29 C)
Dew Point: 80 F (27 C)
Relative Humidity: 88%
Pressure (altimeter): 29.83 in. Hg (1010 hPa)
ob: ROYN 120100Z AUTO 20016KT 9999 FEW010 29/27 Q1010
cycle: 1

Station Type Date Time Source
ROYN TAF UTC NOAA

Error!

Example: see airport list